createdAt,value
2022-08-28T00:00:19.271Z,60.33
2022-08-28T00:02:21.537Z,61.75
2022-08-28T00:04:23.753Z,61.47
2022-08-28T00:06:25.825Z,61.35
2022-08-28T00:08:28.023Z,60.96
2022-08-28T00:10:30.337Z,61.55
2022-08-28T00:12:32.509Z,61.83
2022-08-28T00:14:34.793Z,61.98
2022-08-28T00:16:37.019Z,62.77
2022-08-28T00:18:39.080Z,63.44
2022-08-28T00:20:41.178Z,64.11
2022-08-28T00:22:43.180Z,63.58
2022-08-28T00:24:45.858Z,63.37
2022-08-28T00:27:06.276Z,66.66
2022-08-28T00:29:08.276Z,63.76
2022-08-28T00:31:10.339Z,63.54
2022-08-28T00:33:19.891Z,65.63
2022-08-28T00:35:23.370Z,64.21
2022-08-28T00:37:25.464Z,64.92
2022-08-28T00:39:28.103Z,66.49
2022-08-28T00:41:31.382Z,64.00
2022-08-28T00:43:45.521Z,64.78
2022-08-28T00:45:48.196Z,63.08
2022-08-28T00:47:50.406Z,64.93
2022-08-28T00:49:53.595Z,63.03
2022-08-28T00:52:12.861Z,63.05
2022-08-28T00:54:14.867Z,62.67
2022-08-28T00:56:17.472Z,62.51
2022-08-28T00:58:20.325Z,65.69
2022-08-28T01:00:32.198Z,64.07
2022-08-28T01:02:34.311Z,62.91
2022-08-28T01:04:36.429Z,63.63
2022-08-28T01:06:38.443Z,62.62
2022-08-28T01:08:41.410Z,64.47
2022-08-28T01:10:44.518Z,64.53
2022-08-28T01:12:46.586Z,63.40
2022-08-28T01:14:50.034Z,63.82
2022-08-28T01:16:57.914Z,62.50
2022-08-28T01:19:00.638Z,63.13
2022-08-28T01:21:20.187Z,65.27
2022-08-28T01:23:51.667Z,65.41
2022-08-28T01:25:53.704Z,64.01
2022-08-28T01:27:55.775Z,63.83
2022-08-28T01:29:57.918Z,63.65
2022-08-28T01:31:59.935Z,62.90
2022-08-28T01:34:02.086Z,63.45
2022-08-28T01:36:04.355Z,63.25
2022-08-28T01:38:06.714Z,63.94
2022-08-28T01:40:10.512Z,63.55
2022-08-28T01:42:14.009Z,64.46
2022-08-28T01:44:17.794Z,63.77
2022-08-28T01:46:19.936Z,64.95
2022-08-28T01:48:24.688Z,65.00
2022-08-28T01:50:26.960Z,64.25
2022-08-28T01:52:29.044Z,64.54
2022-08-28T01:54:31.233Z,63.88
2022-08-28T01:56:33.595Z,64.27
2022-08-28T01:58:38.294Z,63.98
2022-08-28T02:00:40.689Z,64.27
2022-08-28T02:02:42.715Z,64.20
2022-08-28T02:04:48.080Z,64.43
2022-08-28T02:06:50.911Z,64.17
2022-08-28T02:08:55.625Z,64.23
2022-08-28T02:10:57.620Z,64.60
2022-08-28T02:13:00.131Z,65.01
2022-08-28T02:15:02.175Z,64.91
2022-08-28T02:17:04.201Z,65.21
2022-08-28T02:19:06.230Z,64.31
2022-08-28T02:21:08.585Z,64.14
2022-08-28T02:23:11.361Z,65.17
2022-08-28T02:25:14.047Z,65.75
2022-08-28T02:27:15.963Z,67.65
2022-08-28T02:29:18.822Z,66.00
2022-08-28T02:31:20.964Z,66.13
2022-08-28T02:33:22.985Z,66.20
2022-08-28T02:35:25.041Z,66.28
2022-08-28T02:37:27.127Z,65.97
2022-08-28T02:39:29.169Z,66.22
2022-08-28T02:41:31.406Z,66.92
2022-08-28T02:43:33.908Z,66.06
2022-08-28T02:45:36.152Z,66.16
2022-08-28T02:47:40.021Z,66.69
2022-08-28T02:49:42.692Z,65.90
2022-08-28T02:51:44.706Z,68.72
2022-08-28T02:53:46.737Z,67.83
2022-08-28T02:55:48.720Z,66.91
2022-08-28T02:57:51.159Z,67.12
2022-08-28T02:59:53.161Z,66.92
2022-08-28T03:01:55.778Z,66.47
2022-08-28T03:03:58.179Z,68.90
2022-08-28T03:06:00.875Z,66.60
2022-08-28T03:08:03.018Z,69.36
2022-08-28T03:10:07.225Z,68.65
2022-08-28T03:12:10.720Z,67.41
2022-08-28T03:14:12.772Z,66.75
2022-08-28T03:16:14.876Z,67.68
2022-08-28T03:18:18.084Z,67.18
2022-08-28T03:20:20.862Z,67.75
2022-08-28T03:22:41.088Z,67.39
2022-08-28T03:24:43.979Z,67.98
2022-08-28T03:26:46.426Z,68.31
2022-08-28T03:28:51.532Z,67.92
2022-08-28T03:30:54.345Z,67.73
2022-08-28T03:32:56.399Z,67.71
2022-08-28T03:34:58.435Z,68.53
2022-08-28T03:37:01.306Z,68.80
2022-08-28T03:39:05.548Z,69.00
2022-08-28T03:41:16.345Z,69.92
2022-08-28T03:43:21.332Z,69.12
2022-08-28T03:45:23.413Z,68.16
2022-08-28T03:47:25.963Z,68.37
2022-08-28T03:49:29.348Z,68.62
2022-08-28T03:51:33.232Z,69.27
2022-08-28T03:53:36.135Z,69.31
2022-08-28T03:55:42.048Z,70.40
2022-08-28T03:57:44.047Z,68.94
2022-08-28T03:59:48.248Z,69.17
2022-08-28T04:01:50.324Z,68.86
2022-08-28T04:03:52.409Z,69.19
2022-08-28T04:05:54.437Z,69.05
2022-08-28T04:07:56.482Z,68.93
2022-08-28T04:09:58.495Z,68.17
2022-08-28T04:12:00.728Z,68.55
2022-08-28T04:14:02.731Z,69.21
2022-08-28T04:16:11.667Z,69.73
2022-08-28T04:18:13.915Z,68.99
2022-08-28T04:20:15.938Z,69.79
2022-08-28T04:22:17.947Z,69.45
2022-08-28T04:24:20.950Z,69.45
2022-08-28T04:26:25.188Z,70.03
2022-08-28T04:28:27.447Z,70.10
2022-08-28T04:30:29.447Z,70.29
2022-08-28T04:32:33.423Z,69.06
2022-08-28T04:34:38.111Z,69.72
2022-08-28T04:36:40.149Z,69.26
2022-08-28T04:38:44.076Z,69.18
2022-08-28T04:40:46.404Z,69.32
2022-08-28T04:42:48.455Z,68.78
2022-08-28T04:44:50.499Z,68.80
2022-08-28T04:46:53.330Z,68.60
2022-08-28T04:48:56.036Z,68.48
2022-08-28T04:50:58.375Z,70.47
2022-08-28T04:53:00.406Z,69.14
2022-08-28T04:55:02.438Z,68.80
2022-08-28T04:57:06.395Z,68.60
2022-08-28T04:59:08.836Z,68.76
2022-08-28T05:01:22.139Z,69.83
2022-08-28T05:03:24.249Z,69.05
2022-08-28T05:05:26.273Z,69.14
2022-08-28T05:07:28.565Z,68.28
2022-08-28T05:09:31.969Z,68.45
2022-08-28T05:11:35.143Z,68.04
2022-08-28T05:13:37.832Z,67.96
2022-08-28T05:15:40.833Z,68.10
2022-08-28T05:17:42.813Z,68.65
2022-08-28T05:19:44.916Z,69.44
2022-08-28T05:21:47.554Z,70.41
2022-08-28T05:23:56.316Z,73.21
2022-08-28T05:25:58.378Z,72.06
2022-08-28T05:28:00.381Z,72.23
2022-08-28T05:30:02.552Z,72.35
2022-08-28T05:32:05.129Z,73.21
2022-08-28T05:34:07.502Z,72.94
2022-08-28T05:36:09.965Z,73.32
2022-08-28T05:38:13.361Z,73.12
2022-08-28T05:40:16.879Z,73.70
2022-08-28T05:42:19.018Z,72.79
2022-08-28T05:44:21.128Z,72.48
2022-08-28T05:46:23.573Z,72.47
2022-08-28T05:48:34.826Z,73.45
2022-08-28T05:50:47.505Z,72.39
2022-08-28T05:52:50.457Z,72.64
2022-08-28T05:54:52.640Z,72.13
2022-08-28T05:56:54.653Z,72.54
2022-08-28T05:58:57.886Z,71.46
2022-08-28T06:01:10.614Z,72.48
2022-08-28T06:03:12.625Z,71.71
2022-08-28T06:05:14.916Z,71.97
2022-08-28T06:07:16.933Z,70.82
2022-08-28T06:09:29.059Z,71.98
2022-08-28T06:11:31.926Z,72.56
2022-08-28T06:13:34.257Z,71.18
2022-08-28T06:15:45.278Z,71.39
2022-08-28T06:17:48.549Z,70.31
2022-08-28T06:19:50.599Z,70.08
2022-08-28T06:21:56.378Z,69.77
2022-08-28T06:23:58.455Z,69.05
2022-08-28T06:26:00.459Z,68.76
2022-08-28T06:28:02.716Z,68.58
2022-08-28T06:30:05.659Z,68.54
2022-08-28T06:32:07.697Z,68.23
2022-08-28T06:34:09.909Z,67.96
2022-08-28T06:36:12.009Z,68.24
2022-08-28T06:38:14.464Z,67.93
2022-08-28T06:40:16.683Z,67.59
2022-08-28T06:42:18.733Z,67.25
2022-08-28T06:44:21.505Z,66.95
2022-08-28T06:46:25.065Z,66.63
2022-08-28T06:48:28.295Z,66.28
2022-08-28T06:50:30.292Z,66.19
2022-08-28T06:52:32.297Z,66.04
2022-08-28T06:54:34.394Z,65.70
2022-08-28T06:56:36.608Z,65.57
2022-08-28T06:58:43.098Z,65.36
2022-08-28T07:00:59.725Z,65.06
2022-08-28T07:03:06.066Z,64.60
2022-08-28T07:05:08.800Z,64.24
2022-08-28T07:07:11.394Z,63.61
2022-08-28T07:09:33.414Z,63.71
2022-08-28T07:11:35.803Z,63.31
2022-08-28T07:13:37.808Z,62.80
2022-08-28T07:15:41.855Z,62.46
2022-08-28T07:17:44.550Z,61.92
2022-08-28T07:19:46.594Z,61.63
2022-08-28T07:21:48.635Z,61.22
2022-08-28T07:23:50.647Z,60.82
2022-08-28T07:25:52.655Z,60.86
2022-08-28T07:27:54.637Z,60.44
2022-08-28T07:29:56.625Z,60.26
2022-08-28T07:31:59.631Z,60.32
2022-08-28T07:34:01.632Z,59.70
2022-08-28T07:36:06.003Z,59.03
2022-08-28T07:38:08.728Z,58.05
2022-08-28T07:40:11.845Z,58.49
2022-08-28T07:42:35.662Z,57.68
2022-08-28T07:44:50.072Z,56.52
2022-08-28T07:46:56.833Z,55.19
2022-08-28T07:48:59.060Z,55.93
2022-08-28T07:51:02.140Z,55.68
2022-08-28T07:53:04.550Z,55.57
2022-08-28T07:55:08.855Z,53.73
2022-08-28T07:57:10.959Z,55.12
2022-08-28T07:59:16.587Z,54.51
2022-08-28T08:01:19.730Z,53.99
2022-08-28T08:03:22.821Z,53.93
2022-08-28T08:05:25.760Z,53.56
2022-08-28T08:07:28.790Z,53.54
2022-08-28T08:09:30.860Z,52.55
2022-08-28T08:11:33.118Z,52.47
2022-08-28T08:13:35.755Z,52.23
2022-08-28T08:15:37.918Z,52.10
2022-08-28T08:17:39.947Z,50.03
2022-08-28T08:19:42.162Z,51.12
2022-08-28T08:21:46.178Z,50.32
2022-08-28T08:23:48.375Z,50.45
2022-08-28T08:26:00.475Z,48.65
2022-08-28T08:28:03.978Z,50.16
2022-08-28T08:30:06.553Z,49.63
2022-08-28T08:32:10.031Z,47.12
2022-08-28T08:34:12.091Z,49.44
2022-08-28T08:36:14.943Z,47.96
2022-08-28T08:38:16.962Z,48.21
2022-08-28T08:40:20.730Z,47.87
2022-08-28T08:42:29.292Z,46.21
2022-08-28T08:44:37.102Z,45.88
2022-08-28T08:47:01.004Z,43.92
2022-08-28T08:49:07.232Z,45.34
2022-08-28T08:51:20.666Z,44.94
2022-08-28T08:53:58.848Z,43.22
2022-08-28T08:56:03.148Z,45.50
2022-08-28T08:58:16.554Z,43.08
2022-08-28T09:00:18.958Z,44.35
2022-08-28T09:02:22.575Z,40.88
2022-08-28T09:05:00.053Z,41.70
2022-08-28T09:07:38.427Z,41.24
2022-08-28T09:09:54.575Z,41.56
2022-08-28T09:12:03.696Z,40.65
2022-08-28T09:14:53.416Z,39.63
2022-08-28T09:16:56.139Z,40.99
2022-08-28T09:18:58.479Z,39.93
2022-08-28T09:21:00.418Z,38.37
2022-08-28T09:23:12.689Z,40.07
2022-08-28T09:25:47.637Z,36.64
2022-08-28T09:27:53.919Z,35.92
2022-08-28T09:30:08.215Z,35.30
2022-08-28T09:32:33.190Z,35.31
2022-08-28T09:34:38.983Z,35.37
2022-08-28T09:36:41.278Z,35.38
2022-08-28T09:38:43.265Z,35.37
2022-08-28T09:41:03.895Z,33.91
2022-08-28T09:43:31.454Z,33.82
2022-08-28T09:45:33.484Z,35.03
2022-08-28T09:47:40.540Z,34.13
2022-08-28T09:49:48.622Z,34.04
2022-08-28T09:51:50.762Z,30.98
2022-08-28T09:53:54.600Z,32.51
2022-08-28T09:56:35.126Z,29.89
2022-08-28T09:58:44.429Z,31.29
2022-08-28T10:00:59.122Z,28.53
2022-08-28T10:03:15.213Z,29.91
2022-08-28T10:05:41.775Z,29.36
2022-08-28T10:07:49.192Z,28.99
2022-08-28T10:10:10.409Z,28.49
2022-08-28T10:12:53.294Z,27.67
2022-08-28T10:15:49.896Z,27.54
2022-08-28T10:18:17.561Z,27.45
2022-08-28T10:20:37.591Z,27.43
2022-08-28T10:22:54.975Z,28.00
2022-08-28T10:25:08.957Z,28.36
2022-08-28T10:27:37.933Z,28.80
2022-08-28T10:29:49.573Z,28.66
2022-08-28T10:33:01.105Z,28.75
2022-08-28T10:35:39.141Z,27.79
2022-08-28T10:38:19.197Z,27.41
2022-08-28T10:40:31.550Z,27.29
2022-08-28T10:42:50.991Z,25.73
2022-08-28T10:45:01.224Z,25.90
2022-08-28T10:47:03.588Z,26.27
2022-08-28T10:49:51.534Z,25.29
2022-08-28T10:52:02.836Z,25.39
2022-08-28T10:54:30.362Z,25.25
2022-08-28T10:56:40.754Z,26.53
2022-08-28T10:58:42.866Z,27.25
2022-08-28T11:00:44.902Z,26.61
2022-08-28T11:02:57.071Z,26.36
2022-08-28T11:04:59.251Z,26.76
2022-08-28T11:07:05.662Z,26.18
2022-08-28T11:09:28.220Z,26.06
2022-08-28T11:11:45.507Z,26.00
2022-08-28T11:13:57.561Z,26.26
2022-08-28T11:15:59.588Z,27.11
2022-08-28T11:18:16.810Z,26.65
2022-08-28T11:20:24.980Z,27.28
2022-08-28T11:22:56.589Z,26.95
2022-08-28T11:25:26.521Z,27.08
2022-08-28T11:27:36.383Z,27.79
2022-08-28T11:30:02.572Z,29.23
2022-08-28T11:32:52.536Z,32.55
2022-08-28T11:35:00.052Z,33.27
2022-08-28T11:37:02.817Z,33.83
2022-08-28T11:39:14.075Z,34.74
2022-08-28T11:41:22.546Z,34.63
2022-08-28T11:43:31.031Z,34.44
2022-08-28T11:45:47.899Z,35.37
2022-08-28T11:47:54.085Z,35.70
2022-08-28T11:49:56.064Z,35.93
2022-08-28T11:52:06.852Z,35.79
2022-08-28T11:54:48.715Z,35.31
2022-08-28T11:57:18.915Z,35.35
2022-08-28T11:59:43.556Z,34.62
2022-08-28T12:01:45.556Z,34.87
2022-08-28T12:03:58.116Z,35.84
2022-08-28T12:06:00.429Z,35.76
2022-08-28T12:08:03.151Z,35.98
2022-08-28T12:10:30.808Z,37.16
2022-08-28T12:12:47.964Z,36.82
2022-08-28T12:14:56.014Z,38.42
2022-08-28T12:17:03.855Z,37.54
2022-08-28T12:19:05.959Z,37.55
2022-08-28T12:21:07.906Z,38.63
2022-08-28T12:23:45.467Z,39.43
2022-08-28T12:25:48.064Z,39.38
2022-08-28T12:27:50.048Z,38.81
2022-08-28T12:30:00.483Z,39.67
2022-08-28T12:32:30.329Z,40.35
2022-08-28T12:35:00.244Z,40.56
2022-08-28T12:37:03.800Z,39.93
2022-08-28T12:39:05.807Z,40.32
2022-08-28T12:41:17.054Z,41.07
2022-08-28T12:43:46.282Z,41.92
2022-08-28T12:46:19.275Z,40.89
2022-08-28T12:48:31.736Z,41.79
2022-08-28T12:50:38.834Z,41.90
2022-08-28T12:52:49.368Z,41.79
2022-08-28T12:54:52.136Z,41.57
2022-08-28T12:56:54.147Z,42.09
2022-08-28T12:58:56.404Z,42.27
2022-08-28T13:01:04.503Z,43.66
2022-08-28T13:03:07.321Z,43.41
2022-08-28T13:05:31.983Z,43.93
2022-08-28T13:08:05.055Z,44.03
2022-08-28T13:10:48.825Z,43.58
2022-08-28T13:13:06.703Z,43.71
2022-08-28T13:15:10.179Z,43.25
2022-08-28T13:17:13.609Z,42.89
2022-08-28T13:19:34.441Z,43.30
2022-08-28T13:21:52.131Z,44.27
2022-08-28T13:23:58.384Z,43.85
2022-08-28T13:26:05.867Z,44.05
2022-08-28T13:28:15.208Z,44.01
2022-08-28T13:30:20.181Z,44.17
2022-08-28T13:32:22.532Z,43.65
2022-08-28T13:34:25.957Z,44.76
2022-08-28T13:36:27.955Z,44.00
2022-08-28T13:38:29.981Z,43.82
2022-08-28T13:40:57.539Z,45.45
2022-08-28T13:43:11.010Z,45.47
2022-08-28T13:45:13.906Z,44.88
2022-08-28T13:47:15.991Z,44.82
2022-08-28T13:49:17.992Z,44.73
2022-08-28T13:51:20.834Z,45.50
2022-08-28T13:53:23.416Z,46.13
2022-08-28T13:55:25.448Z,45.47
2022-08-28T13:57:28.732Z,46.73
2022-08-28T13:59:31.168Z,45.62
2022-08-28T14:01:51.748Z,46.74
2022-08-28T14:03:53.876Z,46.56
2022-08-28T14:05:55.895Z,46.47
2022-08-28T14:07:57.897Z,47.06
2022-08-28T14:09:59.952Z,47.08
2022-08-28T14:12:03.119Z,47.40
2022-08-28T14:14:05.119Z,46.13
2022-08-28T14:16:07.588Z,46.70
2022-08-28T14:18:09.631Z,47.08
2022-08-28T14:20:13.105Z,47.55
2022-08-28T14:22:15.179Z,46.87
2022-08-28T14:24:17.826Z,48.17
2022-08-28T14:26:19.834Z,47.23
2022-08-28T14:28:21.823Z,47.02
2022-08-28T14:30:25.285Z,47.96
2022-08-28T14:32:27.587Z,47.96
2022-08-28T14:34:29.602Z,47.49
2022-08-28T14:36:32.198Z,48.22
2022-08-28T14:38:34.179Z,47.95
2022-08-28T14:40:38.418Z,48.39
2022-08-28T14:42:41.963Z,47.70
2022-08-28T14:44:43.996Z,47.40
2022-08-28T14:46:46.792Z,47.97
2022-08-28T14:48:49.039Z,47.34
2022-08-28T14:50:51.049Z,47.49
2022-08-28T14:52:53.046Z,47.25
2022-08-28T14:54:55.700Z,47.46
2022-08-28T14:56:57.783Z,47.22
2022-08-28T14:59:00.494Z,47.78
2022-08-28T15:01:02.664Z,47.65
2022-08-28T15:03:04.956Z,47.28
2022-08-28T15:05:07.511Z,47.87
2022-08-28T15:07:10.983Z,48.34
2022-08-28T15:09:13.716Z,47.85
2022-08-28T15:11:18.862Z,47.87
2022-08-28T15:13:21.931Z,48.04
2022-08-28T15:15:24.004Z,47.96
2022-08-28T15:17:33.683Z,47.80
2022-08-28T15:19:36.819Z,48.31
2022-08-28T15:21:43.217Z,48.23
2022-08-28T15:23:45.234Z,47.53
2022-08-28T15:25:47.235Z,47.51
2022-08-28T15:27:49.328Z,47.02
2022-08-28T15:29:51.371Z,46.88
2022-08-28T15:31:53.779Z,46.45
2022-08-28T15:33:55.911Z,46.34
2022-08-28T15:35:58.017Z,45.82
2022-08-28T15:38:00.025Z,45.39
2022-08-28T15:40:20.911Z,44.87
2022-08-28T15:42:23.306Z,44.99
2022-08-28T15:44:25.392Z,44.52
2022-08-28T15:46:29.290Z,44.54
2022-08-28T15:48:32.318Z,44.30
2022-08-28T15:50:35.634Z,44.36
2022-08-28T15:52:39.011Z,44.11
2022-08-28T15:54:40.962Z,43.42
2022-08-28T15:56:43.009Z,43.62
2022-08-28T15:58:45.166Z,43.33
2022-08-28T16:00:47.271Z,43.45
2022-08-28T16:02:49.461Z,43.54
2022-08-28T16:04:52.322Z,43.41
2022-08-28T16:07:00.384Z,43.62
2022-08-28T16:09:04.349Z,43.55
2022-08-28T16:11:06.564Z,43.41
2022-08-28T16:13:08.694Z,43.19
2022-08-28T16:15:11.206Z,42.63
2022-08-28T16:17:13.190Z,42.10
2022-08-28T16:19:16.100Z,42.68
2022-08-28T16:21:18.726Z,42.99
2022-08-28T16:23:20.730Z,43.30
2022-08-28T16:25:22.739Z,43.71
2022-08-28T16:27:24.729Z,44.61
2022-08-28T16:29:26.760Z,44.50
2022-08-28T16:31:28.880Z,45.16
2022-08-28T16:33:30.966Z,45.33
2022-08-28T16:35:33.302Z,45.82
2022-08-28T16:37:40.083Z,46.17
2022-08-28T16:39:42.304Z,46.73
2022-08-28T16:41:49.787Z,47.15
2022-08-28T16:43:52.519Z,47.99
2022-08-28T16:45:54.552Z,49.27
2022-08-28T16:47:56.576Z,48.41
2022-08-28T16:50:05.805Z,49.83
2022-08-28T16:52:07.826Z,48.44
2022-08-28T16:54:09.822Z,48.32
2022-08-28T16:56:13.319Z,47.93
2022-08-28T16:58:17.182Z,47.14
2022-08-28T17:00:19.627Z,46.80
2022-08-28T17:02:26.484Z,46.91
2022-08-28T17:04:28.812Z,46.80
2022-08-28T17:06:31.601Z,47.03
2022-08-28T17:08:33.623Z,47.38
2022-08-28T17:10:35.869Z,47.80
2022-08-28T17:12:38.548Z,48.03
2022-08-28T17:14:40.575Z,49.39
2022-08-28T17:16:42.678Z,50.13
2022-08-28T17:18:48.213Z,49.67
2022-08-28T17:21:13.023Z,49.60
2022-08-28T17:23:15.481Z,49.99
2022-08-28T17:25:17.802Z,50.40
2022-08-28T17:27:22.679Z,51.03
2022-08-28T17:29:25.504Z,52.03
2022-08-28T17:31:27.630Z,51.71
2022-08-28T17:33:29.732Z,52.81
2022-08-28T17:35:31.813Z,51.51
2022-08-28T17:37:43.956Z,51.70
2022-08-28T17:39:46.108Z,51.81
2022-08-28T17:41:48.129Z,52.29
2022-08-28T17:43:50.188Z,51.86
2022-08-28T17:45:52.810Z,53.39
2022-08-28T17:47:54.837Z,54.33
2022-08-28T17:49:56.852Z,53.05
2022-08-28T17:51:58.982Z,55.21
2022-08-28T17:54:00.967Z,54.79
2022-08-28T17:56:06.597Z,56.28
2022-08-28T17:58:08.608Z,55.10
2022-08-28T18:00:12.164Z,56.82
2022-08-28T18:02:16.713Z,57.12
2022-08-28T18:04:23.808Z,56.79
2022-08-28T18:06:26.553Z,57.72
2022-08-28T18:08:28.780Z,57.44
2022-08-28T18:10:35.151Z,59.20
2022-08-28T18:12:38.151Z,57.53
2022-08-28T18:14:40.936Z,55.88
2022-08-28T18:16:43.109Z,56.20
2022-08-28T18:18:45.312Z,57.72
2022-08-28T18:20:47.324Z,56.99
2022-08-28T18:22:49.757Z,57.02
2022-08-28T18:24:54.480Z,58.61
2022-08-28T18:26:57.354Z,58.45
2022-08-28T18:28:59.470Z,58.47
2022-08-28T18:31:02.639Z,59.88
2022-08-28T18:33:04.798Z,59.02
2022-08-28T18:35:07.152Z,59.54
2022-08-28T18:37:09.674Z,59.10
2022-08-28T18:39:11.641Z,60.38
2022-08-28T18:41:15.211Z,58.23
2022-08-28T18:43:20.291Z,58.52
2022-08-28T18:45:22.319Z,57.95
2022-08-28T18:47:24.362Z,57.57
2022-08-28T18:49:27.155Z,57.10
2022-08-28T18:51:32.328Z,56.92
2022-08-28T18:53:34.348Z,56.82
2022-08-28T18:55:36.358Z,56.40
2022-08-28T18:57:38.884Z,57.17
2022-08-28T18:59:40.873Z,56.11
2022-08-28T19:01:43.174Z,56.31
2022-08-28T19:03:45.422Z,55.78
2022-08-28T19:05:47.411Z,56.75
2022-08-28T19:07:49.593Z,57.84
2022-08-28T19:09:51.635Z,57.95
2022-08-28T19:11:54.195Z,59.17
2022-08-28T19:13:56.146Z,60.43
2022-08-28T19:15:58.196Z,58.63
2022-08-28T19:18:00.494Z,60.06
2022-08-28T19:20:05.810Z,62.86
2022-08-28T19:22:07.895Z,61.71
2022-08-28T19:24:10.132Z,64.07
2022-08-28T19:26:13.093Z,62.41
2022-08-28T19:28:15.098Z,62.72
2022-08-28T19:30:18.831Z,65.03
2022-08-28T19:32:26.654Z,64.08
2022-08-28T19:34:29.877Z,66.91
2022-08-28T19:36:31.984Z,68.11
2022-08-28T19:38:34.060Z,67.31
2022-08-28T19:40:36.192Z,67.14
2022-08-28T19:42:38.231Z,67.20
2022-08-28T19:44:40.262Z,66.88
2022-08-28T19:46:42.327Z,67.85
2022-08-28T19:48:44.501Z,70.21
2022-08-28T19:50:48.809Z,71.48
2022-08-28T19:52:50.908Z,71.87
2022-08-28T19:54:52.921Z,69.65
2022-08-28T19:56:57.588Z,73.93
2022-08-28T19:59:01.451Z,73.26
2022-08-28T20:01:04.192Z,74.92
2022-08-28T20:03:06.437Z,74.52
2022-08-28T20:05:09.530Z,72.54
2022-08-28T20:07:11.898Z,73.10
2022-08-28T20:09:13.908Z,73.66
2022-08-28T20:11:23.255Z,75.32
2022-08-28T20:13:25.245Z,74.20
2022-08-28T20:15:27.306Z,75.10
2022-08-28T20:17:29.334Z,76.45
2022-08-28T20:19:31.400Z,75.55
2022-08-28T20:21:37.685Z,75.91
2022-08-28T20:23:40.350Z,74.00
2022-08-28T20:25:49.277Z,76.72
2022-08-28T20:27:51.660Z,76.45
2022-08-28T20:29:53.690Z,75.22
2022-08-28T20:31:55.804Z,75.66
2022-08-28T20:33:57.840Z,76.95
2022-08-28T20:36:04.661Z,77.79
2022-08-28T20:38:06.850Z,75.27
2022-08-28T20:40:10.119Z,77.68
2022-08-28T20:42:13.707Z,76.53
2022-08-28T20:44:17.508Z,77.10
2022-08-28T20:46:20.013Z,77.51
2022-08-28T20:48:22.061Z,79.54
2022-08-28T20:50:26.333Z,77.47
2022-08-28T20:52:28.363Z,77.54
2022-08-28T20:54:38.653Z,79.67
2022-08-28T20:56:41.094Z,78.08
2022-08-28T20:58:43.102Z,78.84
2022-08-28T21:00:45.115Z,79.00
2022-08-28T21:02:47.320Z,76.86
2022-08-28T21:04:49.425Z,78.29
2022-08-28T21:06:51.540Z,79.07
2022-08-28T21:08:56.261Z,79.69
2022-08-28T21:10:58.266Z,79.22
2022-08-28T21:13:00.287Z,80.13
2022-08-28T21:15:02.473Z,81.31
2022-08-28T21:17:05.707Z,82.80
2022-08-28T21:19:15.914Z,80.00
2022-08-28T21:21:18.565Z,79.87
2022-08-28T21:23:22.371Z,80.13
2022-08-28T21:25:24.772Z,80.94
2022-08-28T21:27:27.019Z,81.10
2022-08-28T21:29:29.028Z,82.34
2022-08-28T21:31:31.047Z,83.91
2022-08-28T21:33:33.068Z,84.39
2022-08-28T21:35:35.550Z,83.57
2022-08-28T21:37:38.095Z,83.47
2022-08-28T21:39:40.118Z,84.15
2022-08-28T21:41:42.196Z,82.01
2022-08-28T21:43:45.869Z,83.60
2022-08-28T21:46:01.424Z,85.20
2022-08-28T21:48:03.840Z,83.99
2022-08-28T21:50:06.578Z,84.04
2022-08-28T21:52:08.636Z,84.21
2022-08-28T21:54:10.638Z,83.67
2022-08-28T21:56:17.432Z,85.83
2022-08-28T21:58:19.944Z,82.48
2022-08-28T22:00:23.150Z,82.55
2022-08-28T22:02:25.368Z,83.39
2022-08-28T22:04:27.445Z,83.84
2022-08-28T22:06:29.459Z,83.31
2022-08-28T22:08:31.488Z,84.38
2022-08-28T22:10:35.505Z,85.08
2022-08-28T22:12:40.580Z,84.85
2022-08-28T22:14:42.648Z,84.75
2022-08-28T22:16:44.921Z,84.86
2022-08-28T22:18:47.033Z,85.54
2022-08-28T22:21:07.912Z,85.12
2022-08-28T22:23:09.945Z,85.45
2022-08-28T22:25:11.936Z,86.25
2022-08-28T22:27:15.146Z,85.40
2022-08-28T22:29:17.862Z,84.48
2022-08-28T22:31:19.792Z,87.37
2022-08-28T22:33:21.908Z,86.39
2022-08-28T22:35:24.271Z,85.96
2022-08-28T22:37:26.269Z,85.91
2022-08-28T22:39:28.280Z,86.86
2022-08-28T22:41:31.464Z,85.98
2022-08-28T22:43:34.169Z,86.36
2022-08-28T22:45:36.162Z,87.65
2022-08-28T22:47:38.245Z,85.44
2022-08-28T22:49:40.266Z,86.65
2022-08-28T22:51:42.253Z,84.92
2022-08-28T22:53:44.427Z,85.21
2022-08-28T22:55:46.509Z,85.36
2022-08-28T22:57:48.563Z,85.47
2022-08-28T22:59:50.766Z,86.46
2022-08-28T23:01:52.759Z,84.05
2022-08-28T23:03:54.800Z,84.90
2022-08-28T23:05:56.853Z,83.70
2022-08-28T23:07:59.113Z,86.56
2022-08-28T23:10:01.135Z,85.80
2022-08-28T23:12:05.296Z,84.52
2022-08-28T23:14:07.295Z,85.23
2022-08-28T23:16:09.592Z,83.65
2022-08-28T23:18:11.683Z,83.21
2022-08-28T23:20:15.945Z,85.92
2022-08-28T23:22:19.946Z,84.11
2022-08-28T23:24:22.039Z,84.16
2022-08-28T23:26:24.530Z,84.65
2022-08-28T23:28:26.555Z,85.08
2022-08-28T23:30:28.936Z,84.99
2022-08-28T23:32:30.989Z,85.11
2022-08-28T23:34:36.003Z,84.29
2022-08-28T23:36:39.794Z,85.30
2022-08-28T23:38:45.514Z,85.55
2022-08-28T23:40:48.299Z,85.66
2022-08-28T23:42:53.084Z,85.48
2022-08-28T23:44:55.105Z,84.46
2022-08-28T23:46:57.245Z,84.93
2022-08-28T23:48:59.579Z,84.60
2022-08-28T23:51:01.600Z,83.99
2022-08-28T23:53:04.425Z,84.04
2022-08-28T23:55:07.709Z,83.62
2022-08-28T23:57:11.052Z,84.00
2022-08-28T23:59:13.203Z,84.25
